Time;durP1;ratioP1;P1;durP2;ratioP2;P2;SDS_P1;SDS_P2;PMS_P1;PMS_P2;Temp;Humidity;BMP_temperature;BMP_pressure;BME280_temperature;BME280_humidity;BME280_pressure;Samples;Min_cycle;Max_cycle;Signal;HPM_P1;HPM_P2
2023/08/15 00:00:11;;;;;;;7.38;4.25;;;;;;;17.74;94.56;101239.97;6253202;22;20208;-74
2023/08/15 00:02:40;;;;;;;4.05;3.63;;;;;;;17.72;94.59;101231.63;6252791;22;20127;-75
2023/08/15 00:05:07;;;;;;;4.60;4.20;;;;;;;17.71;94.68;101230.13;6251477;22;20040;-75
2023/08/15 00:07:54;;;;;;;5.22;3.72;;;;;;;17.71;95.22;101234.78;6279618;22;20020;-74
2023/08/15 00:10:20;;;;;;;7.70;4.20;;;;;;;17.70;95.21;101223.28;6279357;22;20012;-75
2023/08/15 00:12:47;;;;;;;6.07;4.10;;;;;;;17.69;96.06;101224.50;6279986;22;20047;-74
2023/08/15 00:15:14;;;;;;;10.63;4.43;;;;;;;17.67;95.92;101222.28;6279751;22;20016;-75
2023/08/15 00:17:40;;;;;;;4.05;3.75;;;;;;;17.70;95.62;101217.16;6251694;22;20095;-75
2023/08/15 00:20:08;;;;;;;5.35;4.03;;;;;;;17.71;95.77;101230.13;6279294;22;20012;-75
2023/08/15 00:22:34;;;;;;;8.13;4.05;;;;;;;17.71;96.32;101224.75;6279221;22;20015;-75
2023/08/15 00:25:01;;;;;;;8.07;3.50;;;;;;;17.70;96.21;101223.28;6279741;22;20047;-74
2023/08/15 00:27:27;;;;;;;6.32;3.72;;;;;;;17.70;96.80;101222.53;6279326;22;20020;-75
2023/08/15 00:29:54;;;;;;;7.13;4.22;;;;;;;17.71;96.82;101227.44;6252607;22;20447;-75
2023/08/15 00:32:20;;;;;;;4.30;3.78;;;;;;;17.72;96.63;101231.63;6252018;22;20111;-75
2023/08/15 00:34:48;;;;;;;5.72;3.80;;;;;;;17.72;96.87;101223.53;6251733;22;20147;-75
2023/08/15 00:37:15;;;;;;;7.30;4.20;;;;;;;17.72;97.83;101228.91;6252376;22;20019;-75
2023/08/15 00:39:41;;;;;;;4.78;4.28;;;;;;;17.70;97.33;101236.75;6226356;22;20115;-74
2023/08/15 00:42:08;;;;;;;5.63;4.20;;;;;;;17.67;97.37;101235.75;6279620;22;20016;-74
2023/08/15 00:44:40;;;;;;;6.82;3.97;;;;;;;17.66;97.50;101242.34;6279073;22;20724;-74
2023/08/15 00:47:07;;;;;;;8.50;3.78;;;;;;;17.59;97.81;101244.72;6252581;22;20464;-75
2023/08/15 00:49:34;;;;;;;9.55;4.10;;;;;;;17.54;98.56;101243.44;6227187;22;20521;-75
2023/08/15 00:52:02;;;;;;;9.75;3.97;;;;;;;17.52;98.07;101240.47;6281136;22;20027;-75
2023/08/15 00:54:30;;;;;;;7.63;4.20;;;;;;;17.51;97.59;101230.19;6280019;22;20016;-74
2023/08/15 00:56:57;;;;;;;7.07;4.15;;;;;;;17.49;97.23;101241.44;6281062;22;20042;-75
2023/08/15 00:59:23;;;;;;;4.40;3.97;;;;;;;17.47;97.87;101238.47;6252899;22;20023;-74
2023/08/15 01:01:50;;;;;;;5.38;4.25;;;;;;;17.46;97.02;101242.38;6253642;22;20107;-75
2023/08/15 01:04:17;;;;;;;5.00;4.05;;;;;;;17.43;97.85;101248.72;6252875;22;20025;-74
2023/08/15 01:06:44;;;;;;;5.10;4.60;;;;;;;17.43;98.53;101253.34;6228483;22;20417;-74
2023/08/15 01:09:12;;;;;;;6.20;4.10;;;;;;;17.40;98.70;101252.34;6253223;22;20016;-75
2023/08/15 01:11:51;;;;;;;4.32;3.83;;;;;;;17.38;98.23;101249.38;6253227;22;20016;-75
2023/08/15 01:14:23;;;;;;;3.80;3.30;;;;;;;17.34;96.75;101246.16;6253312;22;20474;-74
2023/08/15 01:16:51;;;;;;;8.43;3.83;;;;;;;17.34;95.43;101243.47;6253874;22;20488;-75
2023/08/15 01:19:38;;;;;;;5.95;3.33;;;;;;;17.31;94.57;101244.41;6280746;22;20091;-75
2023/08/15 01:22:20;;;;;;;6.97;3.30;;;;;;;17.31;93.25;101252.50;6252564;22;20020;-74
2023/08/15 01:24:47;;;;;;;5.63;2.95;;;;;;;17.30;93.18;101251.75;6280326;22;20017;-75
2023/08/15 01:27:14;;;;;;;4.35;3.22;;;;;;;17.27;91.88;101243.88;6253503;22;20409;-75
2023/08/15 01:29:41;;;;;;;4.30;2.72;;;;;;;17.26;91.27;101250.47;6280223;22;20070;-74
2023/08/15 01:32:31;;;;;;;4.15;2.50;;;;;;;17.27;90.73;101244.63;6252858;22;20055;-75
2023/08/15 01:35:19;;;;;;;5.97;2.70;;;;;;;17.26;89.99;101235.06;6253626;22;20020;-75
2023/08/15 01:37:53;;;;;;;3.38;2.50;;;;;;;17.26;89.28;101240.44;6281006;22;20012;-74
2023/08/15 01:40:22;;;;;;;10.32;2.80;;;;;;;17.27;88.46;101231.16;6280303;22;20016;-75
2023/08/15 01:42:51;;;;;;;9.05;2.80;;;;;;;17.29;88.08;101234.13;6280971;22;20497;-75
2023/08/15 01:45:18;;;;;;;5.05;2.58;;;;;;;17.29;87.86;101236.81;6253063;22;20480;-75
2023/08/15 01:47:44;;;;;;;4.57;2.72;;;;;;;17.31;87.85;101225.59;6252828;22;20017;-75
2023/08/15 01:50:11;;;;;;;5.18;2.47;;;;;;;17.31;87.59;101236.34;6280985;22;20071;-75
2023/08/15 01:52:38;;;;;;;5.40;2.65;;;;;;;17.29;87.72;101228.75;6252326;22;20444;-75
2023/08/15 01:55:05;;;;;;;5.93;2.67;;;;;;;17.29;87.39;101233.38;6280441;22;20016;-75
2023/08/15 01:57:33;;;;;;;5.80;2.40;;;;;;;17.30;87.34;101234.88;6253005;22;20077;-75
2023/08/15 01:59:59;;;;;;;5.90;2.80;;;;;;;17.29;87.87;101228.75;6253061;22;20640;-75
2023/08/15 02:02:26;;;;;;;5.55;2.80;;;;;;;17.29;87.50;101231.44;6251894;22;20096;-75
2023/08/15 02:04:52;;;;;;;4.22;2.45;;;;;;;17.30;86.89;101240.97;6253272;22;20024;-74
2023/08/15 02:07:19;;;;;;;6.82;2.58;;;;;;;17.30;86.79;101232.91;6252802;22;20051;-75
2023/08/15 02:09:46;;;;;;;5.60;2.20;;;;;;;17.29;87.15;101242.19;6253600;22;20024;-75
2023/08/15 02:12:12;;;;;;;4.18;2.55;;;;;;;17.29;87.11;101242.19;6280562;22;20016;-75
2023/08/15 02:14:39;;;;;;;6.47;2.60;;;;;;;17.27;87.17;101250.00;6252488;22;20554;-75
2023/08/15 02:17:06;;;;;;;6.40;2.50;;;;;;;17.29;87.47;101252.22;6252482;22;20469;-75
2023/08/15 02:19:32;;;;;;;3.13;2.50;;;;;;;17.30;87.80;101264.47;6252560;22;20035;-75
2023/08/15 02:21:59;;;;;;;5.07;2.53;;;;;;;17.30;88.25;101267.88;6280794;22;20012;-75
2023/08/15 02:24:26;;;;;;;3.90;2.33;;;;;;;17.28;88.71;101264.94;6252655;22;20055;-75
2023/08/15 02:26:52;;;;;;;4.57;2.55;;;;;;;17.28;88.89;101269.56;6280602;22;20012;-75
2023/08/15 02:29:19;;;;;;;3.75;2.67;;;;;;;17.27;87.99;101270.78;6280097;22;20019;-75
2023/08/15 02:31:47;;;;;;;3.88;2.42;;;;;;;17.28;87.87;101283.78;6252364;22;20079;-75
2023/08/15 02:34:18;;;;;;;5.78;2.65;;;;;;;17.28;88.20;101275.69;6280601;22;20017;-75
2023/08/15 02:36:46;;;;;;;5.63;2.28;;;;;;;17.28;88.31;101277.66;6253087;22;20031;-75
2023/08/15 02:39:15;;;;;;;3.40;2.47;;;;;;;17.27;88.76;101284.97;6280885;22;20012;-75
2023/08/15 02:41:43;;;;;;;2.67;2.30;;;;;;;17.25;88.74;101295.47;6280131;22;20043;-74
2023/08/15 02:44:11;;;;;;;3.85;2.40;;;;;;;17.24;88.50;101295.94;6280012;22;20033;-74
2023/08/15 02:46:37;;;;;;;4.05;2.53;;;;;;;17.22;89.12;101301.06;6280012;22;20023;-74
2023/08/15 02:49:05;;;;;;;3.10;2.53;;;;;;;17.20;89.30;101301.53;6253279;22;20195;-74
2023/08/15 02:51:32;;;;;;;4.20;2.60;;;;;;;17.16;89.86;101302.97;6252101;22;20104;-75
2023/08/15 02:53:58;;;;;;;2.85;2.45;;;;;;;17.13;89.42;101306.59;6280328;22;20030;-74
2023/08/15 02:56:25;;;;;;;3.95;2.65;;;;;;;17.11;89.31;101296.31;6279898;22;20066;-74
2023/08/15 02:58:52;;;;;;;7.30;2.65;;;;;;;17.11;89.37;101295.56;6252604;22;20075;-75
2023/08/15 03:01:19;;;;;;;6.20;2.50;;;;;;;17.10;90.60;101302.91;6252055;22;20074;-74
2023/08/15 03:03:46;;;;;;;6.13;2.65;;;;;;;17.11;90.02;101304.38;6280405;22;20456;-75
2023/08/15 03:06:13;;;;;;;6.25;2.15;;;;;;;17.11;90.47;101295.56;6253377;22;20012;-74
2023/08/15 03:08:39;;;;;;;6.22;2.90;;;;;;;17.10;91.21;101310.22;6279711;22;20016;-75
2023/08/15 03:11:06;;;;;;;4.75;2.70;;;;;;;17.10;90.53;101319.03;6280303;22;20047;-74
2023/08/15 03:13:32;;;;;;;7.32;2.75;;;;;;;17.09;90.54;101325.63;6251192;22;20024;-76
2023/08/15 03:15:59;;;;;;;7.05;2.90;;;;;;;17.07;90.48;101317.28;6253670;22;20023;-76
2023/08/15 03:18:28;;;;;;;7.00;3.40;;;;;;;17.04;91.06;101309.41;6251938;22;20021;-76
2023/08/15 03:21:00;;;;;;;5.45;2.83;;;;;;;17.00;91.32;101302.28;6252966;22;20020;-77
2023/08/15 03:23:29;;;;;;;9.15;2.90;;;;;;;16.98;91.43;101310.06;6252054;22;20500;-74
2023/08/15 03:26:01;;;;;;;6.85;3.20;;;;;;;16.95;91.52;101302.94;6253088;22;20020;-74
2023/08/15 03:28:32;;;;;;;8.95;3.50;;;;;;;16.90;92.33;101298.22;6251634;22;20104;-74
2023/08/15 03:31:09;;;;;;;7.50;3.05;;;;;;;16.89;92.50;101306.78;6252848;22;20541;-74
2023/08/15 03:33:40;;;;;;;;;;;;;;;16.87;91.77;101309.19;6252446;22;20025;-74
2023/08/15 03:36:07;;;;;;;4.70;2.67;;;;;;;16.83;92.90;101304.00;6227989;22;19954;-74
2023/08/15 03:38:35;;;;;;;5.03;2.92;;;;;;;16.82;92.97;101302.53;6251896;22;20063;-74
2023/08/15 03:41:04;;;;;;;6.18;3.17;;;;;;;16.77;94.47;101308.59;6253129;22;20096;-74
2023/08/15 03:43:32;;;;;;;5.82;3.38;;;;;;;16.74;93.78;101296.09;6251204;22;20020;-74
2023/08/15 03:46:00;;;;;;;7.55;4.40;;;;;;;16.71;95.06;101304.34;6253090;22;20070;-74
2023/08/15 03:48:30;;;;;;;4.18;3.78;;;;;;;16.67;95.78;101299.91;6251867;22;20027;-74
2023/08/15 03:50:58;;;;;;;10.68;3.95;;;;;;;16.63;96.29;101302.00;6252553;22;20024;-74
2023/08/15 03:53:25;;;;;;;8.45;3.78;;;;;;;16.61;96.61;101303.69;6226075;22;20031;-74
2023/08/15 03:55:54;;;;;;;6.20;3.70;;;;;;;16.60;97.22;101304.88;6253109;22;20094;-74
2023/08/15 03:58:22;;;;;;;6.75;3.60;;;;;;;16.58;96.52;101301.94;6251257;22;20094;-74
2023/08/15 04:00:49;;;;;;;10.35;4.05;;;;;;;16.56;96.64;101310.47;6279946;22;20445;-74
2023/08/15 04:03:16;;;;;;;11.52;3.42;;;;;;;16.53;97.38;101310.66;6252668;22;20040;-74
2023/08/15 04:05:47;;;;;;;9.02;3.70;;;;;;;16.50;97.47;101315.00;6252556;22;20048;-74
2023/08/15 04:08:15;;;;;;;4.57;3.53;;;;;;;16.48;97.51;101314.00;6280300;22;20020;-74
2023/08/15 04:10:46;;;;;;;10.30;3.58;;;;;;;16.45;97.54;101320.28;6279716;22;20528;-74
2023/08/15 04:13:13;;;;;;;8.05;3.65;;;;;;;16.42;97.93;101313.91;6251992;22;20032;-74
2023/08/15 04:15:43;;;;;;;5.63;3.55;;;;;;;16.40;98.93;101308.25;6252343;22;20020;-74
2023/08/15 04:18:10;;;;;;;9.00;4.05;;;;;;;16.36;99.30;101310.41;6227387;22;20062;-74
2023/08/15 04:20:39;;;;;;;9.82;3.53;;;;;;;16.34;100.00;101304.75;6279116;22;20527;-74
2023/08/15 04:23:07;;;;;;;8.20;3.97;;;;;;;16.33;100.00;101309.41;6252702;22;20048;-74
2023/08/15 04:25:35;;;;;;;5.55;3.42;;;;;;;16.31;100.00;101325.25;6252294;22;20114;-74
2023/08/15 04:28:02;;;;;;;7.18;3.45;;;;;;;16.31;100.00;101321.81;6253670;22;20051;-74
2023/08/15 04:30:31;;;;;;;7.20;4.22;;;;;;;16.29;100.00;101324.22;6252854;22;20016;-74
2023/08/15 04:32:58;;;;;;;7.10;3.60;;;;;;;16.29;100.00;101329.59;6253344;22;20101;-74
2023/08/15 04:35:26;;;;;;;12.50;3.92;;;;;;;16.26;100.00;101325.88;6252691;22;20156;-74
2023/08/15 04:37:53;;;;;;;7.55;3.78;;;;;;;16.25;100.00;101320.97;6253525;22;20053;-74
2023/08/15 04:40:40;;;;;;;9.98;3.38;;;;;;;16.24;100.00;101325.59;6252041;22;20021;-74
2023/08/15 04:43:08;;;;;;;4.38;3.60;;;;;;;16.22;100.00;101325.31;6253801;22;20024;-74
2023/08/15 04:45:40;;;;;;;11.00;3.45;;;;;;;16.23;100.00;101329.50;6280392;22;20034;-74
2023/08/15 04:48:12;;;;;;;15.13;4.35;;;;;;;16.21;100.00;101331.91;6229064;22;20438;-74
2023/08/15 04:50:39;;;;;;;12.23;4.07;;;;;;;16.20;100.00;101335.78;6252696;22;20454;-74
2023/08/15 04:53:06;;;;;;;8.05;4.18;;;;;;;16.20;100.00;101338.47;6253524;22;20082;-74
2023/08/15 04:55:34;;;;;;;10.10;4.15;;;;;;;16.21;100.00;101347.28;6251883;22;20028;-74
2023/08/15 04:58:01;;;;;;;10.82;4.30;;;;;;;16.20;100.00;101353.84;6281265;22;20023;-74
2023/08/15 05:00:28;;;;;;;12.27;4.20;;;;;;;16.21;100.00;101356.09;6227485;22;20442;-74
2023/08/15 05:02:57;;;;;;;16.25;3.58;;;;;;;16.23;100.00;101356.34;6228820;22;20107;-74
2023/08/15 05:05:24;;;;;;;11.77;3.83;;;;;;;16.25;100.00;101362.00;6252718;22;20020;-74
2023/08/15 05:07:51;;;;;;;10.23;3.95;;;;;;;16.30;100.00;101360.63;6254067;22;20095;-74
2023/08/15 05:10:18;;;;;;;8.50;3.92;;;;;;;16.33;100.00;101368.50;6252668;22;20040;-74
2023/08/15 05:12:45;;;;;;;10.50;3.80;;;;;;;16.38;100.00;101374.44;6253465;22;20120;-74
2023/08/15 05:15:11;;;;;;;7.97;3.90;;;;;;;16.48;100.00;101389.22;6228556;22;20095;-74
2023/08/15 05:17:38;;;;;;;7.85;3.85;;;;;;;16.61;100.00;101389.69;6252788;22;20933;-75
2023/08/15 05:20:07;;;;;;;7.72;3.50;;;;;;;16.77;100.00;101389.25;6253419;22;20019;-75
2023/08/15 05:22:34;;;;;;;10.15;3.53;;;;;;;17.48;100.00;101393.38;6252735;22;20078;-74
2023/08/15 05:25:01;;;;;;;9.38;3.55;;;;;;;19.54;95.38;101396.25;6280344;22;20468;-74
2023/08/15 05:27:28;;;;;;;8.45;3.40;;;;;;;21.30;83.47;101395.28;6252678;22;20016;-74
2023/08/15 05:29:55;;;;;;;11.40;3.42;;;;;;;22.57;75.52;101397.69;6253461;22;20402;-75
2023/08/15 05:32:22;;;;;;;10.57;3.35;;;;;;;23.80;70.30;101407.91;6280545;22;20044;-77
2023/08/15 05:34:49;;;;;;;7.20;3.33;;;;;;;24.69;65.48;101413.94;6253252;22;20103;-76
2023/08/15 05:37:16;;;;;;;11.30;3.20;;;;;;;25.46;61.67;101407.50;6228381;22;20075;-74
2023/08/15 05:39:42;;;;;;;7.55;3.28;;;;;;;26.17;58.90;101422.78;6252461;22;20091;-74
2023/08/15 05:42:10;;;;;;;7.32;2.80;;;;;;;26.65;57.45;101428.81;6253850;22;20020;-73
2023/08/15 05:44:37;;;;;;;8.18;3.40;;;;;;;26.72;56.43;101426.13;6280320;22;20015;-74
2023/08/15 05:47:03;;;;;;;7.88;2.78;;;;;;;27.10;55.05;101431.84;6281426;22;20017;-74
2023/08/15 05:49:30;;;;;;;6.93;2.97;;;;;;;26.90;55.12;101433.31;6279998;22;20055;-74
2023/08/15 05:51:57;;;;;;;7.75;2.55;;;;;;;27.55;54.22;101430.56;6253546;22;20040;-74
2023/08/15 05:54:24;;;;;;;9.65;2.63;;;;;;;27.82;53.20;101437.19;6279011;22;20028;-75
2023/08/15 05:56:50;;;;;;;9.73;3.00;;;;;;;27.79;52.50;101441.03;6253973;22;20450;-75
2023/08/15 05:59:17;;;;;;;4.53;2.83;;;;;;;27.70;53.11;101443.53;6254004;22;20044;-75
2023/08/15 06:01:45;;;;;;;8.00;3.13;;;;;;;27.51;53.52;101450.03;6281169;22;20152;-73
2023/08/15 06:04:12;;;;;;;12.02;3.42;;;;;;;27.20;54.16;101437.50;6280704;22;20016;-73
2023/08/15 06:06:39;;;;;;;7.43;3.40;;;;;;;27.14;54.34;101439.69;6279968;22;20012;-73
2023/08/15 06:09:05;;;;;;;8.93;3.20;;;;;;;27.08;55.28;101442.56;6280029;22;20016;-74
2023/08/15 06:11:32;;;;;;;5.97;2.97;;;;;;;26.82;55.53;101440.00;6280157;22;20078;-76
2023/08/15 06:13:58;;;;;;;8.32;3.40;;;;;;;26.39;57.04;101454.28;6253422;22;20044;-77
2023/08/15 06:16:25;;;;;;;11.48;3.22;;;;;;;25.98;58.48;101447.53;6280174;22;20008;-76
2023/08/15 06:18:51;;;;;;;14.55;3.13;;;;;;;25.90;58.88;101461.09;6227629;22;20016;-74
2023/08/15 06:21:18;;;;;;;7.70;3.00;;;;;;;25.58;59.91;101455.81;6252930;22;20047;-73
2023/08/15 06:23:45;;;;;;;8.52;2.80;;;;;;;25.16;60.75;101459.63;6253128;22;20062;-74
2023/08/15 06:26:11;;;;;;;9.05;3.05;;;;;;;24.93;62.24;101457.28;6280533;22;20036;-74
2023/08/15 06:28:38;;;;;;;6.85;2.88;;;;;;;24.45;63.44;101458.34;6280391;22;20012;-75
2023/08/15 06:31:04;;;;;;;8.85;3.00;;;;;;;24.28;65.08;101471.50;6254497;22;20394;-74
2023/08/15 06:33:31;;;;;;;7.53;3.00;;;;;;;23.69;66.97;101478.72;6252841;22;20035;-74
2023/08/15 06:35:58;;;;;;;7.28;2.78;;;;;;;23.54;68.42;101476.44;6280607;22;20023;-74
2023/08/15 06:38:25;;;;;;;5.53;2.63;;;;;;;23.68;68.76;101471.06;6280072;22;20385;-73
2023/08/15 06:40:52;;;;;;;7.28;3.20;;;;;;;23.65;68.48;101480.25;6254412;22;20024;-79
2023/08/15 06:43:18;;;;;;;11.95;2.88;;;;;;;23.52;68.33;101483.59;6228738;22;20417;-75
2023/08/15 06:45:45;;;;;;;8.43;2.60;;;;;;;23.35;70.62;101480.34;6280426;22;20559;-74
2023/08/15 06:48:12;;;;;;;7.43;2.90;;;;;;;22.93;71.27;101483.22;6253492;22;20032;-75
2023/08/15 06:50:38;;;;;;;12.10;3.15;;;;;;;22.66;72.91;101489.63;6279543;22;20027;-74
2023/08/15 06:53:05;;;;;;;13.18;2.90;;;;;;;22.60;73.39;101486.22;6253772;22;20454;-74
2023/08/15 06:55:31;;;;;;;8.40;2.50;;;;;;;22.55;73.68;101487.72;6279905;22;20016;-74
2023/08/15 06:57:58;;;;;;;7.53;3.28;;;;;;;22.48;73.82;101490.97;6281076;22;20012;-75
2023/08/15 07:00:25;;;;;;;8.75;2.92;;;;;;;22.29;74.66;101490.13;6280326;22;20370;-73
2023/08/15 07:02:52;;;;;;;9.07;2.60;;;;;;;22.07;75.84;101496.41;6280919;22;20008;-77
2023/08/15 07:05:19;;;;;;;8.00;2.65;;;;;;;21.98;76.78;101488.56;6252708;22;20016;-77
2023/08/15 07:07:46;;;;;;;10.88;2.47;;;;;;;22.01;76.97;101497.66;6281283;22;20051;-80
2023/08/15 07:10:14;;;;;;;6.75;2.53;;;;;;;21.97;76.52;101497.94;6253529;22;20054;-76
2023/08/15 07:12:41;;;;;;;9.02;3.38;;;;;;;21.85;76.84;101499.22;6202304;22;20020;-79
2023/08/15 07:15:10;;;;;;;5.05;2.50;;;;;;;21.83;77.84;101504.41;6253975;22;20012;-77
2023/08/15 07:17:37;;;;;;;7.97;2.72;;;;;;;21.74;77.79;101505.41;6280092;22;20047;-78
2023/08/15 07:20:05;;;;;;;5.43;2.53;;;;;;;21.86;78.18;101503.41;6280162;22;20457;-78
2023/08/15 07:22:32;;;;;;;7.38;3.40;;;;;;;21.85;78.48;101510.06;6252503;22;20474;-78
2023/08/15 07:25:02;;;;;;;9.98;3.00;;;;;;;21.76;77.69;101515.75;6280578;22;20016;-73
2023/08/15 07:27:28;;;;;;;5.53;2.53;;;;;;;21.73;78.24;101509.38;6279750;22;20510;-74
2023/08/15 07:29:55;;;;;;;9.07;3.40;;;;;;;21.67;78.09;101516.03;6280588;22;20026;-76
2023/08/15 07:32:21;;;;;;;11.18;3.35;;;;;;;21.62;79.18;101512.09;6279989;22;20338;-75
2023/08/15 07:34:49;;;;;;;5.57;2.60;;;;;;;21.64;79.52;101515.78;6279825;22;20074;-75
2023/08/15 07:37:15;;;;;;;8.55;2.60;;;;;;;21.68;79.07;101514.81;6280343;22;20524;-75
2023/08/15 07:39:42;;;;;;;8.63;2.88;;;;;;;21.69;78.93;101516.28;6279424;22;20416;-74
2023/08/15 07:42:09;;;;;;;8.45;2.80;;;;;;;21.69;77.62;101516.28;6280617;22;20047;-75
2023/08/15 07:44:36;;;;;;;3.85;2.33;;;;;;;21.72;77.49;101515.28;6279629;22;20017;-74
2023/08/15 07:47:03;;;;;;;4.53;2.53;;;;;;;21.58;77.43;101522.50;6280242;22;20122;-74
2023/08/15 07:49:32;;;;;;;9.20;2.70;;;;;;;21.46;77.87;101526.47;6252068;22;20051;-75
2023/08/15 07:52:04;;;;;;;8.25;3.30;;;;;;;21.40;78.94;101534.59;6280376;22;20264;-75
2023/08/15 07:54:31;;;;;;;9.02;2.80;;;;;;;21.23;79.65;101529.19;6279287;22;20020;-75
2023/08/15 07:56:58;;;;;;;8.73;3.33;;;;;;;21.18;79.96;101529.94;6280184;22;20537;-76
2023/08/15 07:59:25;;;;;;;8.25;3.10;;;;;;;21.29;78.57;101537.31;6279152;22;20028;-74
2023/08/15 08:01:51;;;;;;;9.95;3.50;;;;;;;21.54;78.00;101530.88;6280259;22;20453;-72
2023/08/15 08:04:21;;;;;;;8.57;3.08;;;;;;;21.84;77.82;101543.81;6278828;22;20071;-73
2023/08/15 08:06:48;;;;;;;10.10;3.45;;;;;;;22.13;76.77;101550.63;6279968;22;20016;-73
2023/08/15 08:09:15;;;;;;;12.07;3.88;;;;;;;22.45;75.70;101543.53;6279861;22;20377;-77
2023/08/15 08:11:41;;;;;;;14.27;3.40;;;;;;;22.46;74.18;101549.69;6279446;22;20018;-75
2023/08/15 08:14:08;;;;;;;5.85;3.50;;;;;;;22.41;73.98;101550.44;6280113;22;20020;-79
2023/08/15 08:16:34;;;;;;;10.57;3.38;;;;;;;22.37;74.34;101547.28;6279396;22;20047;-75
2023/08/15 08:19:01;;;;;;;9.02;3.05;;;;;;;22.48;73.86;101556.09;6251893;22;20030;-76
2023/08/15 08:21:27;;;;;;;10.18;3.10;;;;;;;22.53;74.62;101549.88;6252381;22;20019;-76
2023/08/15 08:23:55;;;;;;;7.57;3.00;;;;;;;22.67;74.05;101539.94;6279870;22;20016;-76
2023/08/15 08:26:22;;;;;;;5.85;2.78;;;;;;;22.77;73.92;101537.66;6279199;22;20027;-76
2023/08/15 08:28:48;;;;;;;7.07;3.35;;;;;;;23.02;73.89;101543.88;6279899;22;20070;-76
2023/08/15 08:31:15;;;;;;;9.65;3.50;;;;;;;23.06;72.38;101547.78;6252391;22;20094;-76
2023/08/15 08:33:41;;;;;;;4.68;2.72;;;;;;;23.00;71.88;101547.09;6278410;22;20027;-76
2023/08/15 08:36:08;;;;;;;4.03;2.70;;;;;;;22.87;72.64;101550.41;6279854;22;20022;-76
2023/08/15 08:38:35;;;;;;;8.57;3.20;;;;;;;23.22;71.57;101555.03;6278967;22;20054;-77
2023/08/15 08:41:03;;;;;;;4.07;2.67;;;;;;;23.76;70.51;101551.53;6226683;22;20480;-76
2023/08/15 08:43:30;;;;;;;5.47;2.95;;;;;;;24.00;67.85;101561.59;6278875;22;20012;-76
2023/08/15 08:45:59;;;;;;;5.15;2.85;;;;;;;24.07;68.69;101569.19;6279557;22;20017;-76
2023/08/15 08:48:26;;;;;;;5.57;2.33;;;;;;;24.09;68.14;101563.97;6278533;22;20052;-76
2023/08/15 08:50:54;;;;;;;3.83;2.38;;;;;;;23.98;67.70;101563.41;6279720;22;20016;-77
2023/08/15 08:53:21;;;;;;;6.00;2.50;;;;;;;23.85;68.16;101564.78;6278368;22;20345;-76
2023/08/15 08:55:48;;;;;;;7.07;3.35;;;;;;;23.44;67.78;101572.38;6279802;22;20012;-77
2023/08/15 08:58:14;;;;;;;6.72;2.95;;;;;;;23.27;68.91;101569.81;6279732;22;20071;-76
2023/08/15 09:00:41;;;;;;;6.45;3.60;;;;;;;23.31;68.76;101559.41;6278949;22;20016;-78
2023/08/15 09:03:09;;;;;;;4.78;3.00;;;;;;;23.35;68.24;101561.81;6278958;22;20342;-77
2023/08/15 09:05:37;;;;;;;8.75;3.80;;;;;;;23.17;68.51;101564.00;6251389;22;20460;-77
2023/08/15 09:08:04;;;;;;;7.38;3.78;;;;;;;23.22;68.77;101559.72;6252228;22;20031;-77
2023/08/15 09:10:31;;;;;;;5.68;3.70;;;;;;;23.58;68.10;101569.28;6279254;22;20012;-77
2023/08/15 09:12:59;;;;;;;4.35;3.83;;;;;;;23.61;67.73;101560.09;6281291;22;20095;-77
2023/08/15 09:15:26;;;;;;;5.03;3.70;;;;;;;23.72;68.64;101566.66;6279320;22;20103;-77
2023/08/15 09:18:00;;;;;;;5.78;3.97;;;;;;;23.90;67.70;101565.94;6281239;22;20047;-77
2023/08/15 09:20:27;;;;;;;5.20;4.32;;;;;;;23.99;66.84;101568.31;6280597;22;20035;-77
2023/08/15 09:22:59;;;;;;;5.75;4.28;;;;;;;24.44;66.05;101568.47;6253714;22;20021;-78
2023/08/15 09:25:27;;;;;;;7.57;4.50;;;;;;;24.38;64.58;101564.38;6280333;22;20016;-77
2023/08/15 09:27:54;;;;;;;7.10;4.32;;;;;;;24.38;65.44;101564.38;6281071;22;20016;-77
2023/08/15 09:30:21;;;;;;;5.22;4.65;;;;;;;24.52;64.94;101571.31;6279643;22;20031;-78
2023/08/15 09:32:48;;;;;;;8.40;4.95;;;;;;;24.77;65.01;101577.41;6281089;22;20016;-78
2023/08/15 09:35:17;;;;;;;5.38;4.72;;;;;;;25.05;64.76;101574.97;6280865;22;20357;-78
2023/08/15 09:37:46;;;;;;;9.07;4.82;;;;;;;25.48;63.05;101580.16;6281216;22;20020;-78
2023/08/15 09:40:19;;;;;;;7.50;3.83;;;;;;;25.65;60.87;101577.13;6253478;22;20016;-78
2023/08/15 09:42:46;;;;;;;6.88;4.05;;;;;;;25.22;61.39;101578.13;6280693;22;20062;-78
2023/08/15 09:45:13;;;;;;;5.57;3.67;;;;;;;25.04;63.79;101583.66;6280182;22;20012;-77
2023/08/15 09:47:40;;;;;;;11.65;4.15;;;;;;;24.75;64.03;101590.78;6280302;22;20021;-77
2023/08/15 09:50:09;;;;;;;6.63;3.80;;;;;;;24.46;64.16;101593.16;6280995;22;20020;-77
2023/08/15 09:52:41;;;;;;;8.98;4.32;;;;;;;24.44;64.27;101592.94;6279931;22;20036;-77
2023/08/15 09:55:12;;;;;;;4.78;4.18;;;;;;;24.88;64.52;101597.00;6280506;22;20098;-77
2023/08/15 09:57:40;;;;;;;6.45;4.07;;;;;;;25.17;62.89;101598.06;6280435;22;20027;-77
2023/08/15 10:00:11;;;;;;;6.70;4.43;;;;;;;25.37;63.03;101585.81;6280326;22;20020;-77
2023/08/15 10:02:55;;;;;;;7.50;4.20;;;;;;;25.45;63.10;101592.09;6254297;22;20020;-77
2023/08/15 10:05:25;;;;;;;5.33;4.07;;;;;;;25.12;62.84;101598.13;6253328;22;20100;-77
2023/08/15 10:07:52;;;;;;;6.30;4.20;;;;;;;24.99;63.22;101600.81;6281059;22;20446;-77
2023/08/15 10:10:19;;;;;;;7.22;4.50;;;;;;;24.79;63.42;101608.28;6253023;22;20023;-77
2023/08/15 10:12:49;;;;;;;4.75;3.92;;;;;;;24.68;63.74;101607.72;6281045;22;20434;-78
2023/08/15 10:15:17;;;;;;;8.10;4.18;;;;;;;24.58;64.58;101608.09;6280429;22;20128;-77
2023/08/15 10:17:44;;;;;;;6.05;4.32;;;;;;;24.50;64.87;101622.81;6281046;22;20016;-77
2023/08/15 10:20:17;;;;;;;4.30;3.90;;;;;;;24.43;64.97;101624.13;6254136;22;20042;-78
2023/08/15 10:22:44;;;;;;;7.10;4.05;;;;;;;24.39;64.75;101620.25;6280800;22;20439;-77
2023/08/15 10:25:22;;;;;;;6.28;4.00;;;;;;;24.36;65.30;101627.47;6280972;22;20331;-77
2023/08/15 10:27:52;;;;;;;7.10;3.80;;;;;;;24.42;64.12;101627.38;6281065;22;20016;-77
2023/08/15 10:30:29;;;;;;;7.38;4.05;;;;;;;24.27;64.59;101634.00;6252662;22;20441;-77
2023/08/15 10:33:01;;;;;;;5.47;3.47;;;;;;;24.25;65.37;101630.31;6281056;22;20016;-77
2023/08/15 10:35:32;;;;;;;3.92;3.47;;;;;;;24.37;65.08;101634.38;6280178;22;20052;-77
2023/08/15 10:38:13;;;;;;;6.43;3.83;;;;;;;24.37;65.26;101631.66;6281088;22;20024;-78
2023/08/15 10:40:41;;;;;;;6.82;3.38;;;;;;;24.40;64.39;101635.31;6280490;22;20016;-78
2023/08/15 10:43:10;;;;;;;8.63;4.43;;;;;;;24.21;64.94;101644.19;6280387;22;20123;-77
2023/08/15 10:45:41;;;;;;;11.27;4.07;;;;;;;24.23;64.63;101636.25;6280566;22;20023;-77
2023/08/15 10:48:09;;;;;;;4.35;3.17;;;;;;;24.23;64.49;101649.84;6281470;22;20454;-77
2023/08/15 10:50:42;;;;;;;6.28;3.63;;;;;;;24.14;64.63;101647.47;6280140;22;20016;-77
2023/08/15 10:53:09;;;;;;;7.10;3.50;;;;;;;24.13;64.99;101646.00;6280898;22;20387;-78
2023/08/15 10:55:38;;;;;;;6.20;3.10;;;;;;;24.03;64.32;101650.31;6253063;22;20106;-75
2023/08/15 10:58:11;;;;;;;8.35;3.50;;;;;;;24.03;64.95;101653.03;6252806;22;20086;-75
2023/08/15 11:00:39;;;;;;;5.10;3.28;;;;;;;24.07;66.19;101658.94;6280547;22;20012;-73
2023/08/15 11:03:07;;;;;;;6.47;3.30;;;;;;;24.18;66.41;101663.50;6281161;22;20581;-74
2023/08/15 11:05:40;;;;;;;9.38;3.65;;;;;;;24.29;66.25;101665.41;6280244;22;20433;-74
2023/08/15 11:08:10;;;;;;;7.47;3.22;;;;;;;24.41;64.42;101666.72;6254054;22;20078;-75
2023/08/15 11:10:43;;;;;;;8.75;3.38;;;;;;;24.54;65.67;101664.06;6280500;22;20851;-76
2023/08/15 11:13:10;;;;;;;5.43;3.05;;;;;;;24.43;63.72;101661.50;6280584;22;20456;-75
2023/08/15 11:15:37;;;;;;;6.13;3.17;;;;;;;24.45;64.46;101661.72;6252463;22;20016;-75
2023/08/15 11:18:04;;;;;;;6.13;2.88;;;;;;;24.53;64.21;101662.59;6281933;22;20442;-78
2023/08/15 11:20:30;;;;;;;7.97;3.05;;;;;;;24.60;63.46;101660.03;6281216;22;20462;-77
2023/08/15 11:22:57;;;;;;;7.05;3.40;;;;;;;24.52;63.62;101655.69;6281488;22;20012;-77
2023/08/15 11:25:24;;;;;;;5.70;3.17;;;;;;;24.40;63.72;101668.69;6280488;22;20018;-77
2023/08/15 11:27:51;;;;;;;10.00;2.95;;;;;;;24.41;63.67;101664.00;6280251;22;20024;-77